sensor_id;sensor_type;location;lat;lon;timestamp;temperature;humidity
11549;DHT22;61444;59.472;18.306;2023-08-30T00:01:10;14.50;99.90
11549;DHT22;61444;59.472;18.306;2023-08-30T00:03:18;14.50;99.90
11549;DHT22;61444;59.472;18.306;2023-08-30T00:05:26;14.50;99.90
11549;DHT22;61444;59.472;18.306;2023-08-30T00:07:35;14.40;99.90
11549;DHT22;61444;59.472;18.306;2023-08-30T00:09:43;14.40;99.90
11549;DHT22;61444;59.472;18.306;2023-08-30T00:11:53;14.40;99.90
11549;DHT22;61444;59.472;18.306;2023-08-30T00:14:05;14.40;99.90
11549;DHT22;61444;59.472;18.306;2023-08-30T00:16:13;14.40;99.90
11549;DHT22;61444;59.472;18.306;2023-08-30T00:18:24;14.40;99.90
11549;DHT22;61444;59.472;18.306;2023-08-30T00:20:32;14.40;99.90
11549;DHT22;61444;59.472;18.306;2023-08-30T00:22:40;14.40;99.90
11549;DHT22;61444;59.472;18.306;2023-08-30T00:24:49;14.40;99.90
11549;DHT22;61444;59.472;18.306;2023-08-30T00:27:00;14.40;99.90
11549;DHT22;61444;59.472;18.306;2023-08-30T00:29:08;14.40;99.90
11549;DHT22;61444;59.472;18.306;2023-08-30T00:31:16;14.40;99.90
11549;DHT22;61444;59.472;18.306;2023-08-30T00:33:25;14.40;99.90
11549;DHT22;61444;59.472;18.306;2023-08-30T00:35:33;14.30;99.90
11549;DHT22;61444;59.472;18.306;2023-08-30T00:37:41;14.30;99.90
11549;DHT22;61444;59.472;18.306;2023-08-30T00:39:49;14.30;99.90
11549;DHT22;61444;59.472;18.306;2023-08-30T00:41:59;14.20;99.90
11549;DHT22;61444;59.472;18.306;2023-08-30T00:44:11;14.20;99.90
11549;DHT22;61444;59.472;18.306;2023-08-30T00:46:20;14.20;99.90
11549;DHT22;61444;59.472;18.306;2023-08-30T00:48:28;14.20;99.90
11549;DHT22;61444;59.472;18.306;2023-08-30T00:50:37;14.20;99.90
11549;DHT22;61444;59.472;18.306;2023-08-30T00:52:45;14.20;99.90
11549;DHT22;61444;59.472;18.306;2023-08-30T00:54:53;14.20;99.90
11549;DHT22;61444;59.472;18.306;2023-08-30T00:57:04;14.20;99.90
11549;DHT22;61444;59.472;18.306;2023-08-30T00:59:14;14.30;99.90
11549;DHT22;61444;59.472;18.306;2023-08-30T01:01:22;14.30;99.90
11549;DHT22;61444;59.472;18.306;2023-08-30T01:03:31;14.30;99.90
11549;DHT22;61444;59.472;18.306;2023-08-30T01:05:39;14.30;99.90
11549;DHT22;61444;59.472;18.306;2023-08-30T01:07:47;14.30;99.90
11549;DHT22;61444;59.472;18.306;2023-08-30T01:09:56;14.30;99.90
11549;DHT22;61444;59.472;18.306;2023-08-30T01:12:11;14.30;99.90
11549;DHT22;61444;59.472;18.306;2023-08-30T01:14:24;14.30;99.90
11549;DHT22;61444;59.472;18.306;2023-08-30T01:16:35;14.20;99.90
11549;DHT22;61444;59.472;18.306;2023-08-30T01:18:44;14.20;99.90
11549;DHT22;61444;59.472;18.306;2023-08-30T01:20:54;14.20;99.90
11549;DHT22;61444;59.472;18.306;2023-08-30T01:23:07;14.20;99.90
11549;DHT22;61444;59.472;18.306;2023-08-30T01:25:31;14.20;99.90
11549;DHT22;61444;59.472;18.306;2023-08-30T01:27:42;14.20;99.90
11549;DHT22;61444;59.472;18.306;2023-08-30T01:29:54;14.20;99.90
11549;DHT22;61444;59.472;18.306;2023-08-30T01:32:05;14.20;99.90
11549;DHT22;61444;59.472;18.306;2023-08-30T01:34:15;14.20;99.90
11549;DHT22;61444;59.472;18.306;2023-08-30T01:36:25;14.20;99.90
11549;DHT22;61444;59.472;18.306;2023-08-30T01:38:34;14.20;99.90
11549;DHT22;61444;59.472;18.306;2023-08-30T01:40:43;14.20;99.90
11549;DHT22;61444;59.472;18.306;2023-08-30T01:42:54;14.20;99.90
11549;DHT22;61444;59.472;18.306;2023-08-30T01:45:04;14.20;99.90
11549;DHT22;61444;59.472;18.306;2023-08-30T01:47:15;14.20;99.90
11549;DHT22;61444;59.472;18.306;2023-08-30T01:49:25;14.20;99.90
11549;DHT22;61444;59.472;18.306;2023-08-30T01:51:33;14.20;99.90
11549;DHT22;61444;59.472;18.306;2023-08-30T01:53:42;14.20;99.90
11549;DHT22;61444;59.472;18.306;2023-08-30T01:55:51;14.20;99.90
11549;DHT22;61444;59.472;18.306;2023-08-30T01:58:01;14.30;99.90
11549;DHT22;61444;59.472;18.306;2023-08-30T02:00:11;14.20;99.90
11549;DHT22;61444;59.472;18.306;2023-08-30T02:02:19;14.30;99.90
11549;DHT22;61444;59.472;18.306;2023-08-30T02:04:28;14.30;99.90
11549;DHT22;61444;59.472;18.306;2023-08-30T02:06:39;14.30;99.90
11549;DHT22;61444;59.472;18.306;2023-08-30T02:08:52;14.30;99.90
11549;DHT22;61444;59.472;18.306;2023-08-30T02:11:07;14.20;99.90
11549;DHT22;61444;59.472;18.306;2023-08-30T02:13:18;14.20;99.90
11549;DHT22;61444;59.472;18.306;2023-08-30T02:15:29;14.20;99.90
11549;DHT22;61444;59.472;18.306;2023-08-30T02:17:39;14.20;99.90
11549;DHT22;61444;59.472;18.306;2023-08-30T02:19:47;14.20;99.90
11549;DHT22;61444;59.472;18.306;2023-08-30T02:22:00;14.20;99.90
11549;DHT22;61444;59.472;18.306;2023-08-30T02:24:08;14.20;99.90
11549;DHT22;61444;59.472;18.306;2023-08-30T02:26:18;14.10;99.90
11549;DHT22;61444;59.472;18.306;2023-08-30T02:28:28;14.10;99.90
11549;DHT22;61444;59.472;18.306;2023-08-30T02:30:36;14.10;99.90
11549;DHT22;61444;59.472;18.306;2023-08-30T02:32:43;14.10;99.90
11549;DHT22;61444;59.472;18.306;2023-08-30T02:34:52;14.10;99.90
11549;DHT22;61444;59.472;18.306;2023-08-30T02:37:01;14.10;99.90
11549;DHT22;61444;59.472;18.306;2023-08-30T02:39:10;14.00;99.90
11549;DHT22;61444;59.472;18.306;2023-08-30T02:41:19;14.10;99.90
11549;DHT22;61444;59.472;18.306;2023-08-30T02:43:29;14.10;99.90
11549;DHT22;61444;59.472;18.306;2023-08-30T02:45:38;14.10;99.90
11549;DHT22;61444;59.472;18.306;2023-08-30T06:57:17;14.60;99.90
11549;DHT22;61444;59.472;18.306;2023-08-30T06:59:27;14.50;99.90
11549;DHT22;61444;59.472;18.306;2023-08-30T07:01:36;14.50;99.90
11549;DHT22;61444;59.472;18.306;2023-08-30T07:03:44;14.50;99.90
11549;DHT22;61444;59.472;18.306;2023-08-30T07:05:52;14.50;99.90
11549;DHT22;61444;59.472;18.306;2023-08-30T07:08:01;14.50;99.90
11549;DHT22;61444;59.472;18.306;2023-08-30T07:10:09;14.50;99.90
11549;DHT22;61444;59.472;18.306;2023-08-30T07:12:18;14.50;99.90
11549;DHT22;61444;59.472;18.306;2023-08-30T07:14:27;14.60;99.90
11549;DHT22;61444;59.472;18.306;2023-08-30T07:16:36;14.60;99.90
11549;DHT22;61444;59.472;18.306;2023-08-30T07:18:44;14.60;99.90
11549;DHT22;61444;59.472;18.306;2023-08-30T07:20:52;14.60;99.90
11549;DHT22;61444;59.472;18.306;2023-08-30T07:23:01;14.60;99.90
11549;DHT22;61444;59.472;18.306;2023-08-30T07:25:09;14.60;99.90
11549;DHT22;61444;59.472;18.306;2023-08-30T07:27:18;14.60;99.90
11549;DHT22;61444;59.472;18.306;2023-08-30T07:29:28;14.60;99.90
11549;DHT22;61444;59.472;18.306;2023-08-30T07:31:36;14.60;99.90
11549;DHT22;61444;59.472;18.306;2023-08-30T07:33:45;14.60;99.90
11549;DHT22;61444;59.472;18.306;2023-08-30T07:35:53;14.70;99.90
11549;DHT22;61444;59.472;18.306;2023-08-30T07:38:02;14.70;99.90
11549;DHT22;61444;59.472;18.306;2023-08-30T07:40:11;14.70;99.90
11549;DHT22;61444;59.472;18.306;2023-08-30T07:42:19;14.70;99.90
11549;DHT22;61444;59.472;18.306;2023-08-30T07:44:29;14.70;99.90
11549;DHT22;61444;59.472;18.306;2023-08-30T07:46:37;14.70;99.90
11549;DHT22;61444;59.472;18.306;2023-08-30T07:48:45;14.80;99.90
11549;DHT22;61444;59.472;18.306;2023-08-30T07:50:54;14.80;99.90
11549;DHT22;61444;59.472;18.306;2023-08-30T07:53:02;14.90;99.90
11549;DHT22;61444;59.472;18.306;2023-08-30T07:55:13;14.90;99.90
11549;DHT22;61444;59.472;18.306;2023-08-30T09:28:03;16.70;99.90
11549;DHT22;61444;59.472;18.306;2023-08-30T09:30:13;16.80;99.90
11549;DHT22;61444;59.472;18.306;2023-08-30T09:32:22;16.90;99.90
11549;DHT22;61444;59.472;18.306;2023-08-30T09:34:30;17.00;99.90
11549;DHT22;61444;59.472;18.306;2023-08-30T09:36:40;17.00;99.90
11549;DHT22;61444;59.472;18.306;2023-08-30T09:38:48;17.00;99.90
11549;DHT22;61444;59.472;18.306;2023-08-30T09:41:04;17.10;99.90
11549;DHT22;61444;59.472;18.306;2023-08-30T09:43:12;17.20;99.90
11549;DHT22;61444;59.472;18.306;2023-08-30T09:45:23;17.30;99.90
11549;DHT22;61444;59.472;18.306;2023-08-30T09:47:32;17.40;99.90
11549;DHT22;61444;59.472;18.306;2023-08-30T09:49:45;17.60;99.90
11549;DHT22;61444;59.472;18.306;2023-08-30T09:51:54;17.70;99.90
11549;DHT22;61444;59.472;18.306;2023-08-30T09:54:04;17.60;99.90
11549;DHT22;61444;59.472;18.306;2023-08-30T09:56:20;17.60;99.90
11549;DHT22;61444;59.472;18.306;2023-08-30T09:58:30;17.60;99.90
11549;DHT22;61444;59.472;18.306;2023-08-30T10:00:40;17.60;99.90
11549;DHT22;61444;59.472;18.306;2023-08-30T10:02:48;17.50;99.90
11549;DHT22;61444;59.472;18.306;2023-08-30T10:05:17;17.40;99.90
11549;DHT22;61444;59.472;18.306;2023-08-30T10:07:27;17.30;99.90
11549;DHT22;61444;59.472;18.306;2023-08-30T10:09:37;17.40;99.90
11549;DHT22;61444;59.472;18.306;2023-08-30T10:11:55;17.30;99.90
11549;DHT22;61444;59.472;18.306;2023-08-30T10:14:06;17.30;99.90
11549;DHT22;61444;59.472;18.306;2023-08-30T10:16:19;17.30;99.90
11549;DHT22;61444;59.472;18.306;2023-08-30T10:18:29;17.40;99.90
11549;DHT22;61444;59.472;18.306;2023-08-30T10:20:40;17.40;99.90
11549;DHT22;61444;59.472;18.306;2023-08-30T10:22:49;17.40;99.90
11549;DHT22;61444;59.472;18.306;2023-08-30T10:25:01;17.40;99.90
11549;DHT22;61444;59.472;18.306;2023-08-30T10:27:18;17.40;99.90
11549;DHT22;61444;59.472;18.306;2023-08-30T10:29:28;17.40;99.90
11549;DHT22;61444;59.472;18.306;2023-08-30T10:31:39;17.30;99.90
11549;DHT22;61444;59.472;18.306;2023-08-30T10:33:48;17.20;99.90
11549;DHT22;61444;59.472;18.306;2023-08-30T10:36:05;17.10;99.90
11549;DHT22;61444;59.472;18.306;2023-08-30T10:38:13;17.10;99.90
11549;DHT22;61444;59.472;18.306;2023-08-30T10:40:32;17.20;99.90
11549;DHT22;61444;59.472;18.306;2023-08-30T10:42:40;17.20;99.90
11549;DHT22;61444;59.472;18.306;2023-08-30T10:44:49;17.20;99.90
11549;DHT22;61444;59.472;18.306;2023-08-30T10:47:22;17.10;99.90
11549;DHT22;61444;59.472;18.306;2023-08-30T10:49:39;17.20;99.90
11549;DHT22;61444;59.472;18.306;2023-08-30T10:51:56;17.10;99.90
11549;DHT22;61444;59.472;18.306;2023-08-30T10:54:12;17.00;99.90
11549;DHT22;61444;59.472;18.306;2023-08-30T10:56:27;16.90;99.90
11549;DHT22;61444;59.472;18.306;2023-08-30T10:58:42;16.90;99.90
11549;DHT22;61444;59.472;18.306;2023-08-30T11:00:51;16.80;99.90
11549;DHT22;61444;59.472;18.306;2023-08-30T11:03:03;16.80;99.90
11549;DHT22;61444;59.472;18.306;2023-08-30T11:05:12;16.80;99.90
11549;DHT22;61444;59.472;18.306;2023-08-30T11:07:21;16.70;99.90
11549;DHT22;61444;59.472;18.306;2023-08-30T11:09:28;16.80;99.90
11549;DHT22;61444;59.472;18.306;2023-08-30T11:11:37;16.80;99.90
11549;DHT22;61444;59.472;18.306;2023-08-30T11:13:44;16.80;99.90
11549;DHT22;61444;59.472;18.306;2023-08-30T11:15:53;16.80;99.90
11549;DHT22;61444;59.472;18.306;2023-08-30T11:18:06;16.80;99.90
11549;DHT22;61444;59.472;18.306;2023-08-30T11:20:16;16.80;99.90
11549;DHT22;61444;59.472;18.306;2023-08-30T11:22:27;16.70;99.90
11549;DHT22;61444;59.472;18.306;2023-08-30T11:24:36;16.60;99.90
11549;DHT22;61444;59.472;18.306;2023-08-30T11:26:44;16.50;99.90
11549;DHT22;61444;59.472;18.306;2023-08-30T11:28:53;16.40;99.90
11549;DHT22;61444;59.472;18.306;2023-08-30T11:31:01;16.50;99.90
11549;DHT22;61444;59.472;18.306;2023-08-30T11:33:10;16.50;99.90
11549;DHT22;61444;59.472;18.306;2023-08-30T11:35:22;16.40;99.90
11549;DHT22;61444;59.472;18.306;2023-08-30T11:37:30;16.40;99.90
11549;DHT22;61444;59.472;18.306;2023-08-30T11:39:37;16.40;99.90
11549;DHT22;61444;59.472;18.306;2023-08-30T11:41:46;16.40;99.90
11549;DHT22;61444;59.472;18.306;2023-08-30T11:43:54;16.30;99.90
11549;DHT22;61444;59.472;18.306;2023-08-30T11:46:03;16.30;99.90
11549;DHT22;61444;59.472;18.306;2023-08-30T11:48:13;16.30;99.90
11549;DHT22;61444;59.472;18.306;2023-08-30T11:50:21;16.30;99.90
11549;DHT22;61444;59.472;18.306;2023-08-30T11:52:32;16.30;99.90
11549;DHT22;61444;59.472;18.306;2023-08-30T11:54:41;16.30;99.90
11549;DHT22;61444;59.472;18.306;2023-08-30T11:56:50;16.30;99.90
11549;DHT22;61444;59.472;18.306;2023-08-30T11:58:57;16.20;99.90
11549;DHT22;61444;59.472;18.306;2023-08-30T12:01:07;16.20;99.90
11549;DHT22;61444;59.472;18.306;2023-08-30T12:03:18;16.10;99.90
11549;DHT22;61444;59.472;18.306;2023-08-30T12:05:26;16.00;99.90
11549;DHT22;61444;59.472;18.306;2023-08-30T12:07:37;16.00;99.90
11549;DHT22;61444;59.472;18.306;2023-08-30T12:09:46;15.90;99.90
11549;DHT22;61444;59.472;18.306;2023-08-30T12:11:54;15.90;99.90
11549;DHT22;61444;59.472;18.306;2023-08-30T12:14:12;15.90;99.90
11549;DHT22;61444;59.472;18.306;2023-08-30T12:16:20;15.90;99.90
11549;DHT22;61444;59.472;18.306;2023-08-30T12:18:32;15.90;99.90
11549;DHT22;61444;59.472;18.306;2023-08-30T12:20:51;15.80;99.90
11549;DHT22;61444;59.472;18.306;2023-08-30T12:22:59;15.70;99.90
11549;DHT22;61444;59.472;18.306;2023-08-30T12:25:16;15.70;99.90
11549;DHT22;61444;59.472;18.306;2023-08-30T12:27:24;15.70;99.90
11549;DHT22;61444;59.472;18.306;2023-08-30T12:29:32;15.70;99.90
11549;DHT22;61444;59.472;18.306;2023-08-30T12:31:40;15.70;99.90
11549;DHT22;61444;59.472;18.306;2023-08-30T12:33:50;15.70;99.90
11549;DHT22;61444;59.472;18.306;2023-08-30T12:35:58;15.70;99.90
11549;DHT22;61444;59.472;18.306;2023-08-30T12:38:06;15.60;99.90
11549;DHT22;61444;59.472;18.306;2023-08-30T12:40:16;15.70;99.90
11549;DHT22;61444;59.472;18.306;2023-08-30T12:42:24;15.70;99.90
11549;DHT22;61444;59.472;18.306;2023-08-30T12:44:33;15.70;99.90
11549;DHT22;61444;59.472;18.306;2023-08-30T12:46:41;15.70;99.90
11549;DHT22;61444;59.472;18.306;2023-08-30T12:48:50;15.70;99.90
11549;DHT22;61444;59.472;18.306;2023-08-30T12:50:58;15.70;99.90
11549;DHT22;61444;59.472;18.306;2023-08-30T12:53:07;15.80;99.90
11549;DHT22;61444;59.472;18.306;2023-08-30T12:55:16;15.80;99.90
11549;DHT22;61444;59.472;18.306;2023-08-30T12:57:26;15.80;99.90
11549;DHT22;61444;59.472;18.306;2023-08-30T12:59:34;15.80;99.90
11549;DHT22;61444;59.472;18.306;2023-08-30T13:01:42;15.90;99.90
11549;DHT22;61444;59.472;18.306;2023-08-30T13:03:51;15.90;99.90
11549;DHT22;61444;59.472;18.306;2023-08-30T13:06:00;16.00;99.90
11549;DHT22;61444;59.472;18.306;2023-08-30T13:08:09;16.00;99.90
11549;DHT22;61444;59.472;18.306;2023-08-30T13:10:17;16.10;99.90
11549;DHT22;61444;59.472;18.306;2023-08-30T13:12:25;16.10;99.90
11549;DHT22;61444;59.472;18.306;2023-08-30T13:14:33;16.20;99.90
11549;DHT22;61444;59.472;18.306;2023-08-30T13:16:41;16.20;99.90
11549;DHT22;61444;59.472;18.306;2023-08-30T13:18:51;16.20;99.90
11549;DHT22;61444;59.472;18.306;2023-08-30T13:20:59;16.20;99.90
11549;DHT22;61444;59.472;18.306;2023-08-30T13:23:07;16.30;99.90
11549;DHT22;61444;59.472;18.306;2023-08-30T13:25:17;16.20;99.90
11549;DHT22;61444;59.472;18.306;2023-08-30T13:27:26;16.30;99.90
11549;DHT22;61444;59.472;18.306;2023-08-30T13:29:34;16.30;99.90
11549;DHT22;61444;59.472;18.306;2023-08-30T13:31:43;16.30;99.90
11549;DHT22;61444;59.472;18.306;2023-08-30T13:33:52;16.30;99.90
11549;DHT22;61444;59.472;18.306;2023-08-30T13:36:01;16.30;99.90
11549;DHT22;61444;59.472;18.306;2023-08-30T13:38:10;16.30;99.90
11549;DHT22;61444;59.472;18.306;2023-08-30T13:40:18;16.30;99.90
11549;DHT22;61444;59.472;18.306;2023-08-30T13:42:26;16.30;99.90
11549;DHT22;61444;59.472;18.306;2023-08-30T13:44:34;16.30;99.90
11549;DHT22;61444;59.472;18.306;2023-08-30T13:46:44;16.30;99.90
11549;DHT22;61444;59.472;18.306;2023-08-30T13:48:56;16.30;99.90
11549;DHT22;61444;59.472;18.306;2023-08-30T13:51:04;16.30;99.90
11549;DHT22;61444;59.472;18.306;2023-08-30T13:53:12;16.30;99.90
11549;DHT22;61444;59.472;18.306;2023-08-30T13:55:21;16.40;99.90
11549;DHT22;61444;59.472;18.306;2023-08-30T13:57:29;16.40;99.90
11549;DHT22;61444;59.472;18.306;2023-08-30T13:59:37;16.60;99.90
11549;DHT22;61444;59.472;18.306;2023-08-30T14:01:45;16.60;99.90
11549;DHT22;61444;59.472;18.306;2023-08-30T14:03:55;16.70;99.90
11549;DHT22;61444;59.472;18.306;2023-08-30T14:06:03;16.70;99.90
11549;DHT22;61444;59.472;18.306;2023-08-30T14:08:11;16.80;99.90
11549;DHT22;61444;59.472;18.306;2023-08-30T14:10:20;16.90;99.90
11549;DHT22;61444;59.472;18.306;2023-08-30T14:12:28;17.00;99.90
11549;DHT22;61444;59.472;18.306;2023-08-30T14:14:36;17.00;99.90
11549;DHT22;61444;59.472;18.306;2023-08-30T14:16:44;17.00;99.90
11549;DHT22;61444;59.472;18.306;2023-08-30T14:18:52;17.00;99.90
11549;DHT22;61444;59.472;18.306;2023-08-30T14:21:02;16.90;99.90
11549;DHT22;61444;59.472;18.306;2023-08-30T14:23:10;16.90;99.90
11549;DHT22;61444;59.472;18.306;2023-08-30T14:25:21;16.90;99.90
11549;DHT22;61444;59.472;18.306;2023-08-30T14:27:29;16.90;99.90
11549;DHT22;61444;59.472;18.306;2023-08-30T14:29:37;17.00;99.90
11549;DHT22;61444;59.472;18.306;2023-08-30T14:31:46;17.00;99.90
11549;DHT22;61444;59.472;18.306;2023-08-30T14:33:55;17.10;99.90
11549;DHT22;61444;59.472;18.306;2023-08-30T14:36:08;17.20;99.90
11549;DHT22;61444;59.472;18.306;2023-08-30T14:38:17;17.20;99.90
11549;DHT22;61444;59.472;18.306;2023-08-30T14:40:25;17.30;99.90
11549;DHT22;61444;59.472;18.306;2023-08-30T14:42:33;17.30;99.90
11549;DHT22;61444;59.472;18.306;2023-08-30T14:44:42;17.30;99.90
11549;DHT22;61444;59.472;18.306;2023-08-30T14:46:50;17.20;99.90
11549;DHT22;61444;59.472;18.306;2023-08-30T14:48:58;17.10;99.90
11549;DHT22;61444;59.472;18.306;2023-08-30T14:51:08;17.10;99.90
11549;DHT22;61444;59.472;18.306;2023-08-30T14:53:17;17.10;99.90
11549;DHT22;61444;59.472;18.306;2023-08-30T14:55:25;17.10;99.90
11549;DHT22;61444;59.472;18.306;2023-08-30T14:57:33;17.10;99.90
11549;DHT22;61444;59.472;18.306;2023-08-30T14:59:42;17.20;99.90
11549;DHT22;61444;59.472;18.306;2023-08-30T15:01:50;17.20;99.90
11549;DHT22;61444;59.472;18.306;2023-08-30T15:03:58;17.20;99.90
11549;DHT22;61444;59.472;18.306;2023-08-30T15:06:08;17.20;99.90
11549;DHT22;61444;59.472;18.306;2023-08-30T15:08:17;17.20;99.90
11549;DHT22;61444;59.472;18.306;2023-08-30T15:10:25;17.20;99.90
11549;DHT22;61444;59.472;18.306;2023-08-30T15:12:33;17.20;99.90
11549;DHT22;61444;59.472;18.306;2023-08-30T15:14:42;17.20;99.90
11549;DHT22;61444;59.472;18.306;2023-08-30T15:16:50;17.20;99.90
11549;DHT22;61444;59.472;18.306;2023-08-30T15:18:57;17.20;99.90
11549;DHT22;61444;59.472;18.306;2023-08-30T15:21:05;17.10;99.90
11549;DHT22;61444;59.472;18.306;2023-08-30T15:23:16;17.10;99.90
11549;DHT22;61444;59.472;18.306;2023-08-30T15:25:24;17.30;99.90
11549;DHT22;61444;59.472;18.306;2023-08-30T15:27:33;17.20;99.90
11549;DHT22;61444;59.472;18.306;2023-08-30T15:29:41;17.10;99.90
11549;DHT22;61444;59.472;18.306;2023-08-30T15:31:49;17.10;99.90
11549;DHT22;61444;59.472;18.306;2023-08-30T15:34:00;16.90;99.90
11549;DHT22;61444;59.472;18.306;2023-08-30T15:36:08;16.90;99.90
11549;DHT22;61444;59.472;18.306;2023-08-30T15:38:18;16.90;99.90
11549;DHT22;61444;59.472;18.306;2023-08-30T15:40:27;16.80;99.90
11549;DHT22;61444;59.472;18.306;2023-08-30T15:42:35;16.70;99.90
11549;DHT22;61444;59.472;18.306;2023-08-30T15:44:44;16.70;99.90
11549;DHT22;61444;59.472;18.306;2023-08-30T15:46:52;16.60;99.90
11549;DHT22;61444;59.472;18.306;2023-08-30T15:49:00;16.60;99.90
11549;DHT22;61444;59.472;18.306;2023-08-30T15:51:09;16.50;99.90
11549;DHT22;61444;59.472;18.306;2023-08-30T15:53:31;16.50;99.90
11549;DHT22;61444;59.472;18.306;2023-08-30T15:55:39;16.40;99.90
11549;DHT22;61444;59.472;18.306;2023-08-30T15:57:47;16.40;99.90
11549;DHT22;61444;59.472;18.306;2023-08-30T15:59:55;16.40;99.90
11549;DHT22;61444;59.472;18.306;2023-08-30T16:02:03;16.40;99.90
11549;DHT22;61444;59.472;18.306;2023-08-30T16:04:12;17.60;99.90
11549;DHT22;61444;59.472;18.306;2023-08-30T16:06:20;16.40;99.90
11549;DHT22;61444;59.472;18.306;2023-08-30T16:08:28;16.20;99.90
11549;DHT22;61444;59.472;18.306;2023-08-30T16:10:38;16.30;99.90
11549;DHT22;61444;59.472;18.306;2023-08-30T16:12:46;16.20;99.90
11549;DHT22;61444;59.472;18.306;2023-08-30T16:14:54;16.20;99.90
11549;DHT22;61444;59.472;18.306;2023-08-30T16:17:03;16.20;99.90
11549;DHT22;61444;59.472;18.306;2023-08-30T16:19:11;16.70;99.90
11549;DHT22;61444;59.472;18.306;2023-08-30T16:21:19;16.10;99.90
11549;DHT22;61444;59.472;18.306;2023-08-30T16:23:28;16.20;99.90
11549;DHT22;61444;59.472;18.306;2023-08-30T16:25:40;16.10;99.90
11549;DHT22;61444;59.472;18.306;2023-08-30T16:27:48;16.10;99.90
11549;DHT22;61444;59.472;18.306;2023-08-30T16:29:56;16.10;99.90
11549;DHT22;61444;59.472;18.306;2023-08-30T16:32:04;16.10;99.90
11549;DHT22;61444;59.472;18.306;2023-08-30T16:34:12;16.10;99.90
11549;DHT22;61444;59.472;18.306;2023-08-30T16:36:21;16.10;99.90
11549;DHT22;61444;59.472;18.306;2023-08-30T16:38:29;16.10;99.90
11549;DHT22;61444;59.472;18.306;2023-08-30T16:40:41;16.00;99.90
11549;DHT22;61444;59.472;18.306;2023-08-30T16:42:49;15.90;99.90
11549;DHT22;61444;59.472;18.306;2023-08-30T16:44:57;15.90;99.90
11549;DHT22;61444;59.472;18.306;2023-08-30T16:47:06;15.90;99.90
11549;DHT22;61444;59.472;18.306;2023-08-30T16:49:14;15.80;99.90
11549;DHT22;61444;59.472;18.306;2023-08-30T16:51:22;15.90;99.90
11549;DHT22;61444;59.472;18.306;2023-08-30T16:53:32;15.90;99.90
11549;DHT22;61444;59.472;18.306;2023-08-30T16:55:42;15.80;99.90
11549;DHT22;61444;59.472;18.306;2023-08-30T16:57:51;15.70;99.90
11549;DHT22;61444;59.472;18.306;2023-08-30T16:59:59;15.60;99.90
11549;DHT22;61444;59.472;18.306;2023-08-30T17:02:07;15.60;99.90
11549;DHT22;61444;59.472;18.306;2023-08-30T17:04:15;15.70;99.90
11549;DHT22;61444;59.472;18.306;2023-08-30T17:06:23;15.70;99.90
11549;DHT22;61444;59.472;18.306;2023-08-30T17:08:33;15.70;99.90
11549;DHT22;61444;59.472;18.306;2023-08-30T17:10:43;15.60;99.90
11549;DHT22;61444;59.472;18.306;2023-08-30T17:12:51;15.60;99.90
11549;DHT22;61444;59.472;18.306;2023-08-30T17:15:04;15.60;99.90
11549;DHT22;61444;59.472;18.306;2023-08-30T17:17:12;15.60;99.90
11549;DHT22;61444;59.472;18.306;2023-08-30T17:19:21;15.50;99.90
11549;DHT22;61444;59.472;18.306;2023-08-30T17:21:29;15.50;99.90
11549;DHT22;61444;59.472;18.306;2023-08-30T17:23:37;15.40;99.90
11549;DHT22;61444;59.472;18.306;2023-08-30T17:25:49;15.40;99.90
11549;DHT22;61444;59.472;18.306;2023-08-30T17:27:56;15.30;99.90
11549;DHT22;61444;59.472;18.306;2023-08-30T17:30:06;15.30;99.90
11549;DHT22;61444;59.472;18.306;2023-08-30T17:32:14;15.30;99.90
11549;DHT22;61444;59.472;18.306;2023-08-30T17:34:22;15.30;99.90
11549;DHT22;61444;59.472;18.306;2023-08-30T17:36:30;15.20;99.90
11549;DHT22;61444;59.472;18.306;2023-08-30T17:38:41;15.10;99.90
11549;DHT22;61444;59.472;18.306;2023-08-30T17:40:51;15.10;99.90
11549;DHT22;61444;59.472;18.306;2023-08-30T17:43:00;15.10;99.90
11549;DHT22;61444;59.472;18.306;2023-08-30T17:45:09;15.10;99.90
11549;DHT22;61444;59.472;18.306;2023-08-30T17:47:18;15.10;99.90
11549;DHT22;61444;59.472;18.306;2023-08-30T17:49:26;15.00;99.90
11549;DHT22;61444;59.472;18.306;2023-08-30T17:51:34;15.00;99.90
11549;DHT22;61444;59.472;18.306;2023-08-30T17:53:43;15.00;99.90
11549;DHT22;61444;59.472;18.306;2023-08-30T17:55:58;15.00;99.90
11549;DHT22;61444;59.472;18.306;2023-08-30T17:58:06;15.00;99.90
11549;DHT22;61444;59.472;18.306;2023-08-30T18:00:15;14.90;99.90
11549;DHT22;61444;59.472;18.306;2023-08-30T18:02:27;14.90;99.90
11549;DHT22;61444;59.472;18.306;2023-08-30T18:04:36;14.80;99.90
11549;DHT22;61444;59.472;18.306;2023-08-30T18:06:44;14.80;99.90
11549;DHT22;61444;59.472;18.306;2023-08-30T18:08:53;14.80;99.90
11549;DHT22;61444;59.472;18.306;2023-08-30T18:11:10;14.80;99.90
11549;DHT22;61444;59.472;18.306;2023-08-30T18:13:19;14.80;99.90
11549;DHT22;61444;59.472;18.306;2023-08-30T18:15:27;14.80;99.90
11549;DHT22;61444;59.472;18.306;2023-08-30T18:17:35;14.70;99.90
11549;DHT22;61444;59.472;18.306;2023-08-30T18:19:45;14.60;99.90
11549;DHT22;61444;59.472;18.306;2023-08-30T18:21:53;14.60;99.90
11549;DHT22;61444;59.472;18.306;2023-08-30T18:24:13;14.60;99.90
11549;DHT22;61444;59.472;18.306;2023-08-30T18:26:22;14.50;99.90
11549;DHT22;61444;59.472;18.306;2023-08-30T18:28:31;14.50;99.90
11549;DHT22;61444;59.472;18.306;2023-08-30T18:30:39;14.50;99.90
11549;DHT22;61444;59.472;18.306;2023-08-30T18:32:47;14.40;99.90
11549;DHT22;61444;59.472;18.306;2023-08-30T18:34:56;14.40;99.90
11549;DHT22;61444;59.472;18.306;2023-08-30T18:37:04;14.30;99.90
11549;DHT22;61444;59.472;18.306;2023-08-30T18:39:13;14.30;99.90
11549;DHT22;61444;59.472;18.306;2023-08-30T18:41:23;14.30;99.90
11549;DHT22;61444;59.472;18.306;2023-08-30T18:43:31;14.20;99.90
11549;DHT22;61444;59.472;18.306;2023-08-30T18:45:43;14.20;99.90
11549;DHT22;61444;59.472;18.306;2023-08-30T18:47:52;14.10;99.90
11549;DHT22;61444;59.472;18.306;2023-08-30T18:50:02;14.10;99.90
11549;DHT22;61444;59.472;18.306;2023-08-30T18:52:11;14.10;99.90
11549;DHT22;61444;59.472;18.306;2023-08-30T18:54:19;14.00;99.90
11549;DHT22;61444;59.472;18.306;2023-08-30T18:56:31;14.00;99.90
11549;DHT22;61444;59.472;18.306;2023-08-30T18:58:40;14.00;99.90
11549;DHT22;61444;59.472;18.306;2023-08-30T19:00:51;14.00;99.90
11549;DHT22;61444;59.472;18.306;2023-08-30T19:02:59;14.00;99.90
11549;DHT22;61444;59.472;18.306;2023-08-30T19:05:08;14.00;99.90